Aviation Digital Data Service (ADDS)

Output produced by METARs form (1902 UTC 23 January 2019)
found at http://aviationweather.gov/metar/data/
 
KCLL 231720Z 2318/2418 32013G23KT P6SM SCT120 
     FM240000 31005KT P6SM SKC 
     FM241500 17006KT P6SM SCT250